sensor_id;sensor_type;location;lat;lon;timestamp;P1;durP1;ratioP1;P2;durP2;ratioP2
57309;SDS011;43153;50.984;18.204;2023-02-15T00:00:28;32.30;;;14.30;;
57309;SDS011;43153;50.984;18.204;2023-02-15T00:02:55;31.10;;;13.70;;
57309;SDS011;43153;50.984;18.204;2023-02-15T00:05:26;27.50;;;11.40;;
57309;SDS011;43153;50.984;18.204;2023-02-15T00:07:58;30.00;;;12.20;;
57309;SDS011;43153;50.984;18.204;2023-02-15T00:10:31;43.60;;;18.80;;
57309;SDS011;43153;50.984;18.204;2023-02-15T00:12:57;26.10;;;13.10;;
57309;SDS011;43153;50.984;18.204;2023-02-15T00:15:26;39.50;;;17.80;;
57309;SDS011;43153;50.984;18.204;2023-02-15T00:17:59;63.20;;;23.10;;
57309;SDS011;43153;50.984;18.204;2023-02-15T00:20:26;54.80;;;22.80;;
57309;SDS011;43153;50.984;18.204;2023-02-15T00:23:00;60.70;;;23.90;;
57309;SDS011;43153;50.984;18.204;2023-02-15T00:25:31;44.60;;;19.40;;
57309;SDS011;43153;50.984;18.204;2023-02-15T00:27:59;34.00;;;13.40;;
57309;SDS011;43153;50.984;18.204;2023-02-15T00:30:28;34.40;;;14.50;;
57309;SDS011;43153;50.984;18.204;2023-02-15T00:32:54;37.60;;;15.20;;
57309;SDS011;43153;50.984;18.204;2023-02-15T00:35:20;30.40;;;12.70;;
57309;SDS011;43153;50.984;18.204;2023-02-15T00:37:49;31.70;;;14.30;;
57309;SDS011;43153;50.984;18.204;2023-02-15T00:40:15;32.20;;;14.30;;
57309;SDS011;43153;50.984;18.204;2023-02-15T00:42:44;34.30;;;15.10;;
57309;SDS011;43153;50.984;18.204;2023-02-15T00:45:10;29.80;;;14.10;;
57309;SDS011;43153;50.984;18.204;2023-02-15T00:47:37;32.00;;;13.70;;
57309;SDS011;43153;50.984;18.204;2023-02-15T00:50:03;32.20;;;13.20;;
57309;SDS011;43153;50.984;18.204;2023-02-15T00:52:32;23.90;;;11.70;;
57309;SDS011;43153;50.984;18.204;2023-02-15T00:54:58;24.40;;;11.30;;
57309;SDS011;43153;50.984;18.204;2023-02-15T00:57:28;28.30;;;12.50;;
57309;SDS011;43153;50.984;18.204;2023-02-15T00:59:56;26.90;;;13.40;;
57309;SDS011;43153;50.984;18.204;2023-02-15T01:02:24;34.00;;;13.10;;
57309;SDS011;43153;50.984;18.204;2023-02-15T01:04:53;26.80;;;11.50;;
57309;SDS011;43153;50.984;18.204;2023-02-15T01:07:20;26.90;;;14.10;;
57309;SDS011;43153;50.984;18.204;2023-02-15T01:09:51;32.50;;;14.30;;
57309;SDS011;43153;50.984;18.204;2023-02-15T01:12:17;28.90;;;13.50;;
57309;SDS011;43153;50.984;18.204;2023-02-15T01:17:16;35.70;;;15.40;;
57309;SDS011;43153;50.984;18.204;2023-02-15T01:19:43;29.30;;;13.90;;
57309;SDS011;43153;50.984;18.204;2023-02-15T01:22:09;33.50;;;13.30;;
57309;SDS011;43153;50.984;18.204;2023-02-15T01:24:42;30.30;;;14.00;;
57309;SDS011;43153;50.984;18.204;2023-02-15T01:27:15;28.00;;;12.20;;
57309;SDS011;43153;50.984;18.204;2023-02-15T01:29:46;33.60;;;13.90;;
57309;SDS011;43153;50.984;18.204;2023-02-15T01:32:16;26.50;;;12.20;;
57309;SDS011;43153;50.984;18.204;2023-02-15T01:34:42;31.10;;;13.90;;
57309;SDS011;43153;50.984;18.204;2023-02-15T01:37:08;26.10;;;12.40;;
57309;SDS011;43153;50.984;18.204;2023-02-15T01:39:34;29.30;;;13.70;;
57309;SDS011;43153;50.984;18.204;2023-02-15T01:42:02;29.80;;;14.80;;
57309;SDS011;43153;50.984;18.204;2023-02-15T01:47:38;28.90;;;13.10;;
57309;SDS011;43153;50.984;18.204;2023-02-15T01:53:11;29.40;;;12.40;;
57309;SDS011;43153;50.984;18.204;2023-02-15T01:55:45;32.10;;;15.00;;
57309;SDS011;43153;50.984;18.204;2023-02-15T01:58:14;34.30;;;18.20;;
57309;SDS011;43153;50.984;18.204;2023-02-15T02:00:41;35.80;;;15.80;;
57309;SDS011;43153;50.984;18.204;2023-02-15T02:03:08;31.60;;;14.40;;
57309;SDS011;43153;50.984;18.204;2023-02-15T02:05:42;36.40;;;14.90;;
57309;SDS011;43153;50.984;18.204;2023-02-15T02:08:14;30.70;;;15.60;;
57309;SDS011;43153;50.984;18.204;2023-02-15T02:10:41;38.10;;;17.00;;
57309;SDS011;43153;50.984;18.204;2023-02-15T02:13:07;41.90;;;16.40;;
57309;SDS011;43153;50.984;18.204;2023-02-15T02:18:28;31.50;;;15.60;;
57309;SDS011;43153;50.984;18.204;2023-02-15T02:21:19;35.00;;;16.50;;
57309;SDS011;43153;50.984;18.204;2023-02-15T03:03:22;20.60;;;11.20;;
57309;SDS011;43153;50.984;18.204;2023-02-15T03:06:00;28.00;;;13.20;;
57309;SDS011;43153;50.984;18.204;2023-02-15T03:08:33;27.10;;;12.30;;
57309;SDS011;43153;50.984;18.204;2023-02-15T03:11:06;24.60;;;13.00;;
57309;SDS011;43153;50.984;18.204;2023-02-15T03:13:33;28.90;;;13.10;;
57309;SDS011;43153;50.984;18.204;2023-02-15T03:16:01;31.30;;;13.70;;
57309;SDS011;43153;50.984;18.204;2023-02-15T03:18:54;24.50;;;12.50;;
57309;SDS011;43153;50.984;18.204;2023-02-15T03:21:50;26.00;;;12.10;;
57309;SDS011;43153;50.984;18.204;2023-02-15T03:27:31;26.20;;;13.50;;
57309;SDS011;43153;50.984;18.204;2023-02-15T03:30:03;26.60;;;13.10;;
57309;SDS011;43153;50.984;18.204;2023-02-15T03:32:34;30.30;;;14.00;;
57309;SDS011;43153;50.984;18.204;2023-02-15T03:35:01;27.50;;;12.30;;
57309;SDS011;43153;50.984;18.204;2023-02-15T03:37:30;21.80;;;11.80;;
57309;SDS011;43153;50.984;18.204;2023-02-15T03:42:51;28.00;;;12.50;;
57309;SDS011;43153;50.984;18.204;2023-02-15T03:45:28;23.30;;;11.70;;
57309;SDS011;43153;50.984;18.204;2023-02-15T03:47:58;20.70;;;10.90;;
57309;SDS011;43153;50.984;18.204;2023-02-15T03:50:29;22.10;;;10.50;;
57309;SDS011;43153;50.984;18.204;2023-02-15T03:53:16;19.80;;;10.70;;
57309;SDS011;43153;50.984;18.204;2023-02-15T03:55:46;19.00;;;10.10;;
57309;SDS011;43153;50.984;18.204;2023-02-15T03:58:18;20.90;;;10.20;;
57309;SDS011;43153;50.984;18.204;2023-02-15T04:01:05;18.10;;;10.00;;
57309;SDS011;43153;50.984;18.204;2023-02-15T04:03:59;18.30;;;9.30;;
57309;SDS011;43153;50.984;18.204;2023-02-15T04:06:30;19.80;;;9.40;;
57309;SDS011;43153;50.984;18.204;2023-02-15T04:09:04;19.70;;;11.00;;
57309;SDS011;43153;50.984;18.204;2023-02-15T04:11:53;19.20;;;10.10;;
57309;SDS011;43153;50.984;18.204;2023-02-15T04:14:27;16.20;;;8.30;;
57309;SDS011;43153;50.984;18.204;2023-02-15T04:17:12;21.60;;;9.90;;
57309;SDS011;43153;50.984;18.204;2023-02-15T04:19:39;23.60;;;9.80;;
57309;SDS011;43153;50.984;18.204;2023-02-15T04:22:24;23.90;;;9.60;;
57309;SDS011;43153;50.984;18.204;2023-02-15T04:25:08;22.90;;;11.50;;
57309;SDS011;43153;50.984;18.204;2023-02-15T04:27:35;17.80;;;9.40;;
57309;SDS011;43153;50.984;18.204;2023-02-15T04:30:06;19.10;;;10.30;;
57309;SDS011;43153;50.984;18.204;2023-02-15T04:32:33;17.00;;;8.80;;
57309;SDS011;43153;50.984;18.204;2023-02-15T04:35:00;22.70;;;10.20;;
57309;SDS011;43153;50.984;18.204;2023-02-15T04:37:27;18.10;;;9.90;;
57309;SDS011;43153;50.984;18.204;2023-02-15T04:39:53;21.00;;;11.10;;
57309;SDS011;43153;50.984;18.204;2023-02-15T04:42:20;18.10;;;8.80;;
57309;SDS011;43153;50.984;18.204;2023-02-15T04:44:47;19.60;;;10.20;;
57309;SDS011;43153;50.984;18.204;2023-02-15T04:47:12;24.50;;;12.10;;
57309;SDS011;43153;50.984;18.204;2023-02-15T04:49:41;19.20;;;10.40;;
57309;SDS011;43153;50.984;18.204;2023-02-15T04:52:10;24.70;;;11.60;;
57309;SDS011;43153;50.984;18.204;2023-02-15T04:54:37;18.60;;;10.50;;
57309;SDS011;43153;50.984;18.204;2023-02-15T04:57:04;23.70;;;12.10;;
57309;SDS011;43153;50.984;18.204;2023-02-15T04:59:31;23.90;;;12.10;;
57309;SDS011;43153;50.984;18.204;2023-02-15T05:01:57;26.80;;;14.30;;
57309;SDS011;43153;50.984;18.204;2023-02-15T05:04:24;23.80;;;12.50;;
57309;SDS011;43153;50.984;18.204;2023-02-15T05:06:50;25.30;;;13.20;;
57309;SDS011;43153;50.984;18.204;2023-02-15T05:09:21;25.30;;;12.90;;
57309;SDS011;43153;50.984;18.204;2023-02-15T05:11:47;21.60;;;12.30;;
57309;SDS011;43153;50.984;18.204;2023-02-15T05:14:13;22.90;;;12.00;;
57309;SDS011;43153;50.984;18.204;2023-02-15T05:16:40;25.00;;;12.30;;
57309;SDS011;43153;50.984;18.204;2023-02-15T05:19:06;29.60;;;12.20;;
57309;SDS011;43153;50.984;18.204;2023-02-15T05:21:32;26.20;;;11.50;;
57309;SDS011;43153;50.984;18.204;2023-02-15T05:23:58;28.70;;;14.50;;
57309;SDS011;43153;50.984;18.204;2023-02-15T05:26:24;27.50;;;13.70;;
57309;SDS011;43153;50.984;18.204;2023-02-15T05:29:10;25.00;;;11.80;;
57309;SDS011;43153;50.984;18.204;2023-02-15T05:31:36;26.70;;;13.60;;
57309;SDS011;43153;50.984;18.204;2023-02-15T05:34:03;24.90;;;12.60;;
57309;SDS011;43153;50.984;18.204;2023-02-15T05:36:30;30.40;;;15.30;;
57309;SDS011;43153;50.984;18.204;2023-02-15T05:39:00;27.30;;;14.40;;
57309;SDS011;43153;50.984;18.204;2023-02-15T05:41:31;24.80;;;13.00;;
57309;SDS011;43153;50.984;18.204;2023-02-15T05:44:03;25.20;;;13.30;;
57309;SDS011;43153;50.984;18.204;2023-02-15T05:46:31;25.30;;;11.80;;
57309;SDS011;43153;50.984;18.204;2023-02-15T05:48:57;28.00;;;13.80;;
57309;SDS011;43153;50.984;18.204;2023-02-15T05:51:23;27.70;;;13.00;;
57309;SDS011;43153;50.984;18.204;2023-02-15T05:53:49;24.00;;;11.50;;
57309;SDS011;43153;50.984;18.204;2023-02-15T05:56:15;27.30;;;13.30;;
57309;SDS011;43153;50.984;18.204;2023-02-15T05:58:43;25.30;;;14.90;;
57309;SDS011;43153;50.984;18.204;2023-02-15T06:01:14;26.30;;;14.50;;
57309;SDS011;43153;50.984;18.204;2023-02-15T06:03:47;33.60;;;15.10;;
57309;SDS011;43153;50.984;18.204;2023-02-15T06:06:13;30.00;;;14.60;;
57309;SDS011;43153;50.984;18.204;2023-02-15T06:08:46;31.10;;;14.30;;
57309;SDS011;43153;50.984;18.204;2023-02-15T06:11:12;31.70;;;15.60;;
57309;SDS011;43153;50.984;18.204;2023-02-15T06:13:40;33.10;;;17.30;;
57309;SDS011;43153;50.984;18.204;2023-02-15T06:16:12;33.60;;;17.40;;
57309;SDS011;43153;50.984;18.204;2023-02-15T06:18:39;32.90;;;15.70;;
57309;SDS011;43153;50.984;18.204;2023-02-15T06:21:06;30.30;;;16.00;;
57309;SDS011;43153;50.984;18.204;2023-02-15T06:23:32;33.30;;;15.40;;
57309;SDS011;43153;50.984;18.204;2023-02-15T06:26:04;29.90;;;16.30;;
57309;SDS011;43153;50.984;18.204;2023-02-15T06:28:33;34.50;;;17.60;;
57309;SDS011;43153;50.984;18.204;2023-02-15T06:31:02;30.20;;;16.20;;
57309;SDS011;43153;50.984;18.204;2023-02-15T06:33:28;38.40;;;17.10;;
57309;SDS011;43153;50.984;18.204;2023-02-15T06:36:18;32.60;;;16.40;;
57309;SDS011;43153;50.984;18.204;2023-02-15T06:39:05;34.20;;;16.50;;
57309;SDS011;43153;50.984;18.204;2023-02-15T06:41:36;36.10;;;17.60;;
57309;SDS011;43153;50.984;18.204;2023-02-15T06:44:04;33.40;;;17.10;;
57309;SDS011;43153;50.984;18.204;2023-02-15T06:46:31;36.50;;;17.90;;
57309;SDS011;43153;50.984;18.204;2023-02-15T06:48:59;34.50;;;16.00;;
57309;SDS011;43153;50.984;18.204;2023-02-15T06:51:32;51.40;;;28.30;;
57309;SDS011;43153;50.984;18.204;2023-02-15T06:54:01;48.40;;;25.60;;
57309;SDS011;43153;50.984;18.204;2023-02-15T06:56:35;42.70;;;24.40;;
57309;SDS011;43153;50.984;18.204;2023-02-15T06:59:10;45.10;;;20.60;;
57309;SDS011;43153;50.984;18.204;2023-02-15T07:01:42;49.70;;;22.10;;
57309;SDS011;43153;50.984;18.204;2023-02-15T07:04:14;37.50;;;17.80;;
57309;SDS011;43153;50.984;18.204;2023-02-15T07:06:40;30.70;;;16.10;;
57309;SDS011;43153;50.984;18.204;2023-02-15T07:09:08;41.30;;;19.20;;
57309;SDS011;43153;50.984;18.204;2023-02-15T07:11:40;31.80;;;16.70;;
57309;SDS011;43153;50.984;18.204;2023-02-15T07:14:27;34.50;;;16.30;;
57309;SDS011;43153;50.984;18.204;2023-02-15T07:16:54;35.30;;;16.10;;
57309;SDS011;43153;50.984;18.204;2023-02-15T07:19:29;38.40;;;17.00;;
57309;SDS011;43153;50.984;18.204;2023-02-15T07:21:57;30.10;;;16.00;;
57309;SDS011;43153;50.984;18.204;2023-02-15T07:24:23;34.70;;;17.10;;
57309;SDS011;43153;50.984;18.204;2023-02-15T07:26:49;32.80;;;16.40;;
57309;SDS011;43153;50.984;18.204;2023-02-15T07:29:25;32.50;;;13.60;;
57309;SDS011;43153;50.984;18.204;2023-02-15T07:32:02;30.90;;;15.70;;
57309;SDS011;43153;50.984;18.204;2023-02-15T07:34:28;36.60;;;18.30;;
57309;SDS011;43153;50.984;18.204;2023-02-15T07:36:55;37.30;;;17.30;;
57309;SDS011;43153;50.984;18.204;2023-02-15T07:39:35;37.00;;;16.20;;
57309;SDS011;43153;50.984;18.204;2023-02-15T07:42:01;38.90;;;18.40;;
57309;SDS011;43153;50.984;18.204;2023-02-15T07:44:36;33.50;;;17.60;;
57309;SDS011;43153;50.984;18.204;2023-02-15T07:47:03;32.10;;;16.00;;
57309;SDS011;43153;50.984;18.204;2023-02-15T07:49:30;30.60;;;15.40;;
57309;SDS011;43153;50.984;18.204;2023-02-15T07:52:03;30.90;;;16.00;;
57309;SDS011;43153;50.984;18.204;2023-02-15T07:54:32;31.80;;;16.40;;
57309;SDS011;43153;50.984;18.204;2023-02-15T07:57:07;33.90;;;17.50;;
57309;SDS011;43153;50.984;18.204;2023-02-15T07:59:38;40.90;;;18.10;;
57309;SDS011;43153;50.984;18.204;2023-02-15T08:02:10;35.90;;;17.10;;
57309;SDS011;43153;50.984;18.204;2023-02-15T08:07:05;32.20;;;15.70;;
57309;SDS011;43153;50.984;18.204;2023-02-15T08:09:41;34.40;;;16.90;;
57309;SDS011;43153;50.984;18.204;2023-02-15T08:12:11;38.10;;;17.30;;
57309;SDS011;43153;50.984;18.204;2023-02-15T08:14:38;35.20;;;16.90;;
57309;SDS011;43153;50.984;18.204;2023-02-15T08:17:40;37.60;;;17.90;;
57309;SDS011;43153;50.984;18.204;2023-02-15T08:20:10;40.10;;;18.20;;
57309;SDS011;43153;50.984;18.204;2023-02-15T08:22:39;38.30;;;18.60;;
57309;SDS011;43153;50.984;18.204;2023-02-15T08:25:09;36.80;;;17.70;;
57309;SDS011;43153;50.984;18.204;2023-02-15T08:27:39;40.70;;;18.80;;
57309;SDS011;43153;50.984;18.204;2023-02-15T08:30:05;36.70;;;16.90;;
57309;SDS011;43153;50.984;18.204;2023-02-15T08:32:34;45.00;;;19.70;;
57309;SDS011;43153;50.984;18.204;2023-02-15T08:35:08;42.10;;;18.30;;
57309;SDS011;43153;50.984;18.204;2023-02-15T08:37:37;38.40;;;18.80;;
57309;SDS011;43153;50.984;18.204;2023-02-15T08:40:10;39.80;;;21.30;;
57309;SDS011;43153;50.984;18.204;2023-02-15T08:42:49;44.90;;;22.00;;
57309;SDS011;43153;50.984;18.204;2023-02-15T08:45:15;45.70;;;21.10;;
57309;SDS011;43153;50.984;18.204;2023-02-15T08:47:42;40.60;;;19.10;;
57309;SDS011;43153;50.984;18.204;2023-02-15T08:50:11;53.20;;;21.00;;
57309;SDS011;43153;50.984;18.204;2023-02-15T08:52:38;51.60;;;22.10;;
57309;SDS011;43153;50.984;18.204;2023-02-15T09:33:08;55.90;;;27.40;;
57309;SDS011;43153;50.984;18.204;2023-02-15T09:35:36;52.70;;;22.10;;
57309;SDS011;43153;50.984;18.204;2023-02-15T09:38:09;55.50;;;23.90;;
57309;SDS011;43153;50.984;18.204;2023-02-15T09:40:38;66.00;;;27.60;;
57309;SDS011;43153;50.984;18.204;2023-02-15T09:43:31;58.00;;;26.80;;
57309;SDS011;43153;50.984;18.204;2023-02-15T09:51:58;59.40;;;28.60;;
57309;SDS011;43153;50.984;18.204;2023-02-15T09:57:55;53.20;;;22.20;;
57309;SDS011;43153;50.984;18.204;2023-02-15T10:08:51;47.90;;;22.90;;
57309;SDS011;43153;50.984;18.204;2023-02-15T10:17:12;42.90;;;21.90;;
57309;SDS011;43153;50.984;18.204;2023-02-15T10:19:52;43.60;;;22.80;;
57309;SDS011;43153;50.984;18.204;2023-02-15T10:25:17;46.50;;;24.60;;
57309;SDS011;43153;50.984;18.204;2023-02-15T10:28:14;47.90;;;24.70;;
57309;SDS011;43153;50.984;18.204;2023-02-15T10:33:41;47.90;;;24.70;;
57309;SDS011;43153;50.984;18.204;2023-02-15T10:39:04;42.80;;;23.70;;
57309;SDS011;43153;50.984;18.204;2023-02-15T11:01:44;47.60;;;23.50;;
57309;SDS011;43153;50.984;18.204;2023-02-15T11:04:33;46.90;;;24.10;;
57309;SDS011;43153;50.984;18.204;2023-02-15T11:07:17;40.20;;;21.60;;
57309;SDS011;43153;50.984;18.204;2023-02-15T11:10:21;41.90;;;23.80;;
57309;SDS011;43153;50.984;18.204;2023-02-15T11:12:51;45.80;;;22.90;;
57309;SDS011;43153;50.984;18.204;2023-02-15T11:15:43;44.50;;;24.00;;
57309;SDS011;43153;50.984;18.204;2023-02-15T11:18:34;41.60;;;23.70;;
57309;SDS011;43153;50.984;18.204;2023-02-15T11:23:43;41.80;;;24.10;;
57309;SDS011;43153;50.984;18.204;2023-02-15T11:26:14;37.90;;;22.30;;
57309;SDS011;43153;50.984;18.204;2023-02-15T11:35:29;45.60;;;22.60;;
57309;SDS011;43153;50.984;18.204;2023-02-15T11:40:46;44.00;;;22.70;;
57309;SDS011;43153;50.984;18.204;2023-02-15T11:46:00;43.80;;;23.60;;
57309;SDS011;43153;50.984;18.204;2023-02-15T11:48:42;42.90;;;23.10;;
57309;SDS011;43153;50.984;18.204;2023-02-15T11:51:11;35.80;;;20.50;;
57309;SDS011;43153;50.984;18.204;2023-02-15T11:53:46;44.40;;;22.80;;
57309;SDS011;43153;50.984;18.204;2023-02-15T11:56:22;36.20;;;20.30;;
57309;SDS011;43153;50.984;18.204;2023-02-15T11:58:58;40.00;;;23.20;;
57309;SDS011;43153;50.984;18.204;2023-02-15T12:01:30;35.50;;;20.20;;
57309;SDS011;43153;50.984;18.204;2023-02-15T12:04:23;46.10;;;23.80;;
57309;SDS011;43153;50.984;18.204;2023-02-15T12:10:22;37.60;;;19.00;;
57309;SDS011;43153;50.984;18.204;2023-02-15T12:13:08;39.00;;;21.50;;
57309;SDS011;43153;50.984;18.204;2023-02-15T12:15:36;31.00;;;16.80;;
57309;SDS011;43153;50.984;18.204;2023-02-15T12:18:33;35.90;;;20.00;;
57309;SDS011;43153;50.984;18.204;2023-02-15T12:21:03;29.60;;;17.30;;
57309;SDS011;43153;50.984;18.204;2023-02-15T12:23:34;31.50;;;17.80;;
57309;SDS011;43153;50.984;18.204;2023-02-15T12:26:34;26.60;;;16.10;;
57309;SDS011;43153;50.984;18.204;2023-02-15T12:29:23;28.10;;;16.90;;
57309;SDS011;43153;50.984;18.204;2023-02-15T12:31:55;29.80;;;18.60;;
57309;SDS011;43153;50.984;18.204;2023-02-15T12:34:38;30.60;;;18.20;;
57309;SDS011;43153;50.984;18.204;2023-02-15T12:37:16;34.30;;;18.40;;
57309;SDS011;43153;50.984;18.204;2023-02-15T12:39:56;32.20;;;18.00;;
57309;SDS011;43153;50.984;18.204;2023-02-15T12:42:24;36.50;;;20.10;;
57309;SDS011;43153;50.984;18.204;2023-02-15T12:45:27;32.60;;;18.80;;
57309;SDS011;43153;50.984;18.204;2023-02-15T12:50:41;31.70;;;18.10;;
57309;SDS011;43153;50.984;18.204;2023-02-15T12:53:21;33.80;;;18.20;;
57309;SDS011;43153;50.984;18.204;2023-02-15T12:56:06;32.40;;;17.90;;
57309;SDS011;43153;50.984;18.204;2023-02-15T13:01:15;33.70;;;19.30;;
57309;SDS011;43153;50.984;18.204;2023-02-15T13:04:04;31.40;;;18.70;;
57309;SDS011;43153;50.984;18.204;2023-02-15T13:06:32;33.20;;;19.00;;
57309;SDS011;43153;50.984;18.204;2023-02-15T13:12:11;37.40;;;21.00;;
57309;SDS011;43153;50.984;18.204;2023-02-15T13:17:17;33.10;;;19.30;;
57309;SDS011;43153;50.984;18.204;2023-02-15T13:20:04;32.60;;;19.40;;
57309;SDS011;43153;50.984;18.204;2023-02-15T13:22:58;35.20;;;20.40;;
57309;SDS011;43153;50.984;18.204;2023-02-15T13:25:37;34.10;;;19.10;;
57309;SDS011;43153;50.984;18.204;2023-02-15T13:28:16;41.90;;;20.40;;
57309;SDS011;43153;50.984;18.204;2023-02-15T13:30:46;34.90;;;19.80;;
57309;SDS011;43153;50.984;18.204;2023-02-15T13:36:12;39.20;;;21.80;;
57309;SDS011;43153;50.984;18.204;2023-02-15T13:41:32;34.40;;;19.30;;
57309;SDS011;43153;50.984;18.204;2023-02-15T13:52:46;41.30;;;19.20;;
57309;SDS011;43153;50.984;18.204;2023-02-15T13:55:33;34.50;;;17.80;;
57309;SDS011;43153;50.984;18.204;2023-02-15T14:01:09;34.90;;;19.30;;
57309;SDS011;43153;50.984;18.204;2023-02-15T14:03:42;32.30;;;17.70;;
57309;SDS011;43153;50.984;18.204;2023-02-15T14:29:20;37.10;;;20.00;;
57309;SDS011;43153;50.984;18.204;2023-02-15T14:32:18;36.00;;;19.20;;
57309;SDS011;43153;50.984;18.204;2023-02-15T14:34:57;39.50;;;20.30;;
57309;SDS011;43153;50.984;18.204;2023-02-15T14:40:24;39.60;;;20.40;;
57309;SDS011;43153;50.984;18.204;2023-02-15T14:43:17;36.00;;;19.00;;
57309;SDS011;43153;50.984;18.204;2023-02-15T14:46:34;35.40;;;19.90;;
57309;SDS011;43153;50.984;18.204;2023-02-15T14:49:11;40.30;;;19.10;;
57309;SDS011;43153;50.984;18.204;2023-02-15T14:52:03;31.40;;;17.70;;
57309;SDS011;43153;50.984;18.204;2023-02-15T15:05:08;43.70;;;23.30;;
57309;SDS011;43153;50.984;18.204;2023-02-15T15:07:44;41.00;;;20.60;;
57309;SDS011;43153;50.984;18.204;2023-02-15T15:12:51;37.80;;;19.20;;
57309;SDS011;43153;50.984;18.204;2023-02-15T15:18:05;36.40;;;18.20;;
57309;SDS011;43153;50.984;18.204;2023-02-15T16:02:22;30.20;;;17.10;;
57309;SDS011;43153;50.984;18.204;2023-02-15T16:04:51;36.00;;;16.80;;
57309;SDS011;43153;50.984;18.204;2023-02-15T16:07:23;39.30;;;16.70;;
57309;SDS011;43153;50.984;18.204;2023-02-15T16:12:24;30.60;;;15.20;;
57309;SDS011;43153;50.984;18.204;2023-02-15T16:15:11;36.70;;;18.40;;
57309;SDS011;43153;50.984;18.204;2023-02-15T16:17:42;31.40;;;15.50;;
57309;SDS011;43153;50.984;18.204;2023-02-15T16:20:25;35.50;;;13.70;;
57309;SDS011;43153;50.984;18.204;2023-02-15T16:25:52;34.70;;;15.80;;
57309;SDS011;43153;50.984;18.204;2023-02-15T16:28:34;35.70;;;15.80;;
57309;SDS011;43153;50.984;18.204;2023-02-15T16:31:13;35.20;;;14.70;;
57309;SDS011;43153;50.984;18.204;2023-02-15T16:33:42;38.10;;;16.00;;
57309;SDS011;43153;50.984;18.204;2023-02-15T16:36:12;34.50;;;14.60;;
57309;SDS011;43153;50.984;18.204;2023-02-15T16:43:42;35.40;;;15.30;;
57309;SDS011;43153;50.984;18.204;2023-02-15T16:46:12;31.70;;;15.50;;
57309;SDS011;43153;50.984;18.204;2023-02-15T16:48:49;35.10;;;17.50;;
57309;SDS011;43153;50.984;18.204;2023-02-15T16:51:22;38.40;;;17.90;;
57309;SDS011;43153;50.984;18.204;2023-02-15T16:54:08;35.10;;;18.20;;
57309;SDS011;43153;50.984;18.204;2023-02-15T16:56:43;33.50;;;17.10;;
57309;SDS011;43153;50.984;18.204;2023-02-15T17:02:23;36.60;;;16.40;;
57309;SDS011;43153;50.984;18.204;2023-02-15T17:10:32;32.90;;;17.20;;
57309;SDS011;43153;50.984;18.204;2023-02-15T17:13:03;40.90;;;17.80;;
57309;SDS011;43153;50.984;18.204;2023-02-15T17:16:27;36.20;;;17.50;;
57309;SDS011;43153;50.984;18.204;2023-02-15T17:18:49;35.90;;;17.70;;
57309;SDS011;43153;50.984;18.204;2023-02-15T17:21:19;34.30;;;15.80;;
57309;SDS011;43153;50.984;18.204;2023-02-15T17:23:47;35.90;;;16.00;;
57309;SDS011;43153;50.984;18.204;2023-02-15T17:26:21;40.10;;;17.20;;
57309;SDS011;43153;50.984;18.204;2023-02-15T17:28:51;37.10;;;16.90;;
57309;SDS011;43153;50.984;18.204;2023-02-15T17:31:20;39.90;;;17.00;;
57309;SDS011;43153;50.984;18.204;2023-02-15T17:33:47;41.00;;;17.90;;
57309;SDS011;43153;50.984;18.204;2023-02-15T17:36:22;46.00;;;19.20;;
57309;SDS011;43153;50.984;18.204;2023-02-15T17:39:05;42.60;;;19.70;;
57309;SDS011;43153;50.984;18.204;2023-02-15T17:41:44;40.80;;;19.10;;
57309;SDS011;43153;50.984;18.204;2023-02-15T17:44:21;43.70;;;19.50;;
57309;SDS011;43153;50.984;18.204;2023-02-15T17:46:50;44.60;;;20.60;;
57309;SDS011;43153;50.984;18.204;2023-02-15T17:49:24;48.00;;;21.70;;
57309;SDS011;43153;50.984;18.204;2023-02-15T17:52:00;47.40;;;20.70;;
57309;SDS011;43153;50.984;18.204;2023-02-15T17:54:27;49.50;;;21.90;;
57309;SDS011;43153;50.984;18.204;2023-02-15T17:57:12;58.80;;;23.40;;
57309;SDS011;43153;50.984;18.204;2023-02-15T17:59:39;48.30;;;21.70;;
57309;SDS011;43153;50.984;18.204;2023-02-15T18:02:24;50.10;;;22.60;;
57309;SDS011;43153;50.984;18.204;2023-02-15T18:05:14;59.10;;;23.60;;
57309;SDS011;43153;50.984;18.204;2023-02-15T18:07:59;47.50;;;22.70;;
57309;SDS011;43153;50.984;18.204;2023-02-15T18:10:47;58.00;;;23.30;;
57309;SDS011;43153;50.984;18.204;2023-02-15T18:13:34;51.70;;;23.40;;
57309;SDS011;43153;50.984;18.204;2023-02-15T18:15:59;52.20;;;23.90;;
57309;SDS011;43153;50.984;18.204;2023-02-15T18:18:31;61.30;;;27.00;;
57309;SDS011;43153;50.984;18.204;2023-02-15T18:20:58;60.30;;;26.70;;
57309;SDS011;43153;50.984;18.204;2023-02-15T18:23:24;60.00;;;26.00;;
57309;SDS011;43153;50.984;18.204;2023-02-15T18:28:17;55.10;;;24.30;;
57309;SDS011;43153;50.984;18.204;2023-02-15T18:30:50;51.40;;;24.60;;
57309;SDS011;43153;50.984;18.204;2023-02-15T18:36:02;56.50;;;23.70;;
57309;SDS011;43153;50.984;18.204;2023-02-15T18:38:32;59.00;;;25.00;;
57309;SDS011;43153;50.984;18.204;2023-02-15T18:41:01;59.60;;;26.70;;
57309;SDS011;43153;50.984;18.204;2023-02-15T18:43:33;58.80;;;26.30;;
57309;SDS011;43153;50.984;18.204;2023-02-15T18:45:59;53.30;;;23.10;;
57309;SDS011;43153;50.984;18.204;2023-02-15T18:48:25;48.20;;;22.30;;
57309;SDS011;43153;50.984;18.204;2023-02-15T18:50:51;52.30;;;21.20;;
57309;SDS011;43153;50.984;18.204;2023-02-15T18:53:20;46.90;;;20.10;;
57309;SDS011;43153;50.984;18.204;2023-02-15T18:55:48;53.80;;;24.30;;
57309;SDS011;43153;50.984;18.204;2023-02-15T18:58:17;50.70;;;20.70;;
57309;SDS011;43153;50.984;18.204;2023-02-15T19:00:50;48.20;;;19.50;;
57309;SDS011;43153;50.984;18.204;2023-02-15T19:03:17;53.70;;;22.00;;
57309;SDS011;43153;50.984;18.204;2023-02-15T19:05:45;49.10;;;22.50;;
57309;SDS011;43153;50.984;18.204;2023-02-15T19:08:16;52.60;;;24.00;;
57309;SDS011;43153;50.984;18.204;2023-02-15T19:10:43;50.00;;;21.30;;
57309;SDS011;43153;50.984;18.204;2023-02-15T19:13:10;48.80;;;21.20;;
57309;SDS011;43153;50.984;18.204;2023-02-15T19:15:43;47.40;;;20.70;;
57309;SDS011;43153;50.984;18.204;2023-02-15T19:18:14;46.00;;;20.10;;
57309;SDS011;43153;50.984;18.204;2023-02-15T19:20:47;51.30;;;20.30;;
57309;SDS011;43153;50.984;18.204;2023-02-15T19:23:19;43.70;;;20.30;;
57309;SDS011;43153;50.984;18.204;2023-02-15T19:25:54;52.80;;;21.90;;
57309;SDS011;43153;50.984;18.204;2023-02-15T19:28:25;51.40;;;20.60;;
57309;SDS011;43153;50.984;18.204;2023-02-15T19:31:00;56.30;;;24.10;;
57309;SDS011;43153;50.984;18.204;2023-02-15T19:33:25;51.10;;;21.70;;
57309;SDS011;43153;50.984;18.204;2023-02-15T19:35:52;57.60;;;22.10;;
57309;SDS011;43153;50.984;18.204;2023-02-15T19:38:25;51.50;;;23.70;;
57309;SDS011;43153;50.984;18.204;2023-02-15T19:41:06;54.90;;;24.50;;
57309;SDS011;43153;50.984;18.204;2023-02-15T19:43:37;53.20;;;25.10;;
57309;SDS011;43153;50.984;18.204;2023-02-15T19:46:05;57.60;;;24.40;;